Time;durP1;ratioP1;P1;durP2;ratioP2;P2;SDS_P1;SDS_P2;PMS_P1;PMS_P2;Temp;Humidity;BMP_temperature;BMP_pressure;BME280_temperature;BME280_humidity;BME280_pressure;Samples;Min_cycle;Max_cycle;Signal;HPM_P1;HPM_P2
2023/12/10 00:00:57;;;;;;;21.15;3.95;;;9.30;1.00;;;;;;7374775;19;20023;-68
2023/12/10 00:03:30;;;;;;;13.23;3.20;;;9.40;1.00;;;;;;7375107;19;20405;-68
2023/12/10 00:06:01;;;;;;;16.95;3.80;;;9.30;1.00;;;;;;7374251;19;20006;-69
2023/12/10 00:08:42;;;;;;;14.90;3.05;;;9.30;1.00;;;;;;7375958;19;20014;-68
2023/12/10 00:11:13;;;;;;;21.42;4.22;;;9.30;1.00;;;;;;7377962;19;20014;-68
2023/12/10 00:13:43;;;;;;;15.07;3.55;;;9.30;1.00;;;;;;7376162;19;20021;-68
2023/12/10 00:16:16;;;;;;;18.42;4.50;;;9.30;1.00;;;;;;7375241;19;20014;-67
2023/12/10 00:18:49;;;;;;;18.30;3.95;;;9.20;1.00;;;;;;7375304;19;20472;-68
2023/12/10 00:21:19;;;;;;;15.48;4.22;;;9.20;1.00;;;;;;7376197;19;20017;-68
2023/12/10 00:23:49;;;;;;;18.63;4.85;;;9.20;1.00;;;;;;7374517;19;20054;-68
2023/12/10 00:26:20;;;;;;;16.20;4.53;;;9.20;1.00;;;;;;7373609;19;20523;-68
2023/12/10 00:28:50;;;;;;;17.35;4.32;;;9.20;1.00;;;;;;7375227;19;20021;-68
2023/12/10 00:31:20;;;;;;;20.05;4.57;;;9.30;1.00;;;;;;7374178;19;20027;-67
2023/12/10 00:33:53;;;;;;;17.20;4.47;;;9.30;1.00;;;;;;7375139;19;20006;-68
2023/12/10 00:36:24;;;;;;;20.08;4.80;;;9.30;1.00;;;;;;7370973;19;20014;-70
2023/12/10 00:38:55;;;;;;;24.10;4.85;;;9.40;1.00;;;;;;7376451;19;20014;-67
2023/12/10 00:41:25;;;;;;;17.30;4.43;;;9.40;1.00;;;;;;7374905;19;20379;-67
2023/12/10 00:43:55;;;;;;;23.42;5.50;;;9.30;1.00;;;;;;7371626;19;20007;-68
2023/12/10 00:46:26;;;;;;;17.95;4.93;;;9.30;1.00;;;;;;7373641;19;20038;-69
2023/12/10 00:48:59;;;;;;;27.20;5.03;;;9.30;1.00;;;;;;7374805;19;20011;-68
2023/12/10 00:51:29;;;;;;;24.00;5.45;;;9.30;1.00;;;;;;7369952;19;20057;-68
2023/12/10 00:53:59;;;;;;;23.90;5.60;;;9.30;1.00;;;;;;7373530;19;20014;-68
2023/12/10 00:56:30;;;;;;;19.85;4.97;;;9.30;1.00;;;;;;7373494;19;20002;-68
2023/12/10 00:59:00;;;;;;;24.80;4.85;;;9.30;1.00;;;;;;7381189;19;20052;-68
2023/12/10 01:01:30;;;;;;;25.27;4.72;;;9.30;1.00;;;;;;7381000;19;20020;-67
2023/12/10 01:04:03;;;;;;;27.55;5.35;;;9.30;1.00;;;;;;7380418;19;20485;-68
2023/12/10 01:06:34;;;;;;;24.50;5.03;;;9.30;1.00;;;;;;7379325;19;20015;-68
2023/12/10 01:09:04;;;;;;;23.30;5.55;;;9.20;1.00;;;;;;7380319;19;20014;-67
2023/12/10 01:11:35;;;;;;;22.60;5.97;;;9.20;1.00;;;;;;7379438;19;20078;-67
2023/12/10 01:14:06;;;;;;;22.55;5.20;;;9.20;1.00;;;;;;7379722;19;20032;-68
2023/12/10 01:16:36;;;;;;;25.00;6.00;;;9.20;1.00;;;;;;7378582;19;20078;-68
2023/12/10 01:19:09;;;;;;;19.90;5.25;;;9.10;1.00;;;;;;7381753;19;20454;-68
2023/12/10 01:21:40;;;;;;;26.88;5.65;;;9.20;1.00;;;;;;7380626;19;20061;-68
2023/12/10 01:24:17;;;;;;;21.63;4.90;;;9.20;1.00;;;;;;7379919;19;20117;-68
2023/12/10 01:26:48;;;;;;;26.38;5.57;;;9.10;1.00;;;;;;7380399;19;20458;-68
2023/12/10 01:29:18;;;;;;;19.67;4.53;;;9.20;1.00;;;;;;7381108;19;20011;-68
2023/12/10 01:31:48;;;;;;;24.13;5.80;;;9.20;1.00;;;;;;7380250;19;20011;-68
2023/12/10 01:34:21;;;;;;;22.58;5.55;;;9.20;1.00;;;;;;7379568;19;20006;-68
2023/12/10 01:36:52;;;;;;;23.63;5.45;;;9.10;1.00;;;;;;7378864;19;20033;-68
2023/12/10 01:39:22;;;;;;;27.05;6.32;;;9.10;1.00;;;;;;7379832;19;20026;-68
2023/12/10 01:41:53;;;;;;;31.50;5.47;;;9.10;1.00;;;;;;7379453;19;20052;-68
2023/12/10 01:44:23;;;;;;;32.58;6.00;;;9.10;1.00;;;;;;7379767;19;20019;-68
2023/12/10 01:46:50;;;;;;;28.15;7.00;;;9.00;1.00;;;;;;7379098;19;20090;-68
2023/12/10 01:49:25;;;;;;;22.70;5.32;;;9.20;1.00;;;;;;7379021;19;20007;-68
2023/12/10 01:51:55;;;;;;;24.48;6.07;;;9.20;1.00;;;;;;7379066;19;20014;-68
2023/12/10 01:54:27;;;;;;;23.92;5.55;;;9.30;1.00;;;;;;7379922;19;20039;-68
2023/12/10 01:56:58;;;;;;;21.98;5.65;;;9.30;1.00;;;;;;7378639;19;20014;-69
2023/12/10 01:59:37;;;;;;;25.67;6.40;;;9.20;1.00;;;;;;7378029;19;20018;-69
2023/12/10 02:02:08;;;;;;;24.08;5.35;;;9.20;1.00;;;;;;7378440;19;20014;-68
2023/12/10 02:04:40;;;;;;;20.10;5.30;;;9.20;1.00;;;;;;7377870;19;20010;-68
2023/12/10 02:07:11;;;;;;;17.95;4.72;;;9.30;1.00;;;;;;7378664;19;20482;-69
2023/12/10 02:09:41;;;;;;;22.48;5.07;;;9.30;1.00;;;;;;7378291;19;20022;-68
2023/12/10 02:12:12;;;;;;;19.27;5.00;;;9.30;1.00;;;;;;7380148;19;20014;-68
2023/12/10 02:14:42;;;;;;;24.92;5.40;;;9.20;1.00;;;;;;7378603;19;20082;-68
2023/12/10 02:17:12;;;;;;;21.42;4.75;;;9.20;1.00;;;;;;7377347;19;20003;-68
2023/12/10 02:19:45;;;;;;;21.52;4.30;;;9.20;1.00;;;;;;7378695;19;20391;-68
2023/12/10 02:22:20;;;;;;;27.85;5.25;;;9.20;1.00;;;;;;7378328;19;20007;-68
2023/12/10 02:24:52;;;;;;;;;;;9.10;1.00;;;;;;7378800;19;20385;-69
2023/12/10 02:27:25;;;;;;;28.80;5.60;;;8.90;1.00;;;;;;7377663;19;19922;-68
2023/12/10 02:29:56;;;;;;;18.33;3.30;;;8.70;1.00;;;;;;7379353;19;20030;-68
2023/12/10 02:32:26;;;;;;;18.65;3.67;;;8.20;1.00;;;;;;7378592;19;20659;-68
2023/12/10 02:34:57;;;;;;;13.38;3.15;;;8.00;1.00;;;;;;7377795;19;20010;-68
2023/12/10 02:37:27;;;;;;;20.38;4.47;;;8.00;1.00;;;;;;7376804;19;20075;-68
2023/12/10 02:39:58;;;;;;;20.70;4.10;;;7.90;1.00;;;;;;7378625;19;20035;-68
2023/12/10 02:42:31;;;;;;;11.45;2.78;;;7.90;1.00;;;;;;7378571;19;20074;-68
2023/12/10 02:45:02;;;;;;;6.32;1.70;;;7.70;4.00;;;;;;7380123;19;20006;-68
2023/12/10 02:47:32;;;;;;;10.70;2.28;;;7.40;21.50;;;;;;7378934;19;20005;-68
2023/12/10 02:50:02;;;;;;;10.88;2.15;;;7.20;57.40;;;;;;7378717;19;20015;-68
2023/12/10 02:52:33;;;;;;;8.35;1.83;;;7.10;71.70;;;;;;7378518;19;20113;-68
2023/12/10 02:55:03;;;;;;;8.57;2.05;;;7.30;14.60;;;;;;7378835;19;20024;-68
2023/12/10 02:57:36;;;;;;;14.05;2.97;;;7.20;28.90;;;;;;7378327;19;20507;-68
2023/12/10 03:00:08;;;;;;;11.60;3.03;;;7.40;1.00;;;;;;7379061;19;20010;-68
2023/12/10 03:02:39;;;;;;;13.73;3.67;;;7.40;1.00;;;;;;7379281;19;20010;-68
2023/12/10 03:05:09;;;;;;;11.27;2.85;;;7.40;1.40;;;;;;7377866;19;20018;-68
2023/12/10 03:07:40;;;;;;;11.27;3.13;;;7.40;5.40;;;;;;7373220;19;20014;-68
2023/12/10 03:10:11;;;;;;;13.50;3.15;;;7.50;1.00;;;;;;7379331;19;20369;-68
2023/12/10 03:12:44;;;;;;;9.38;3.03;;;7.60;1.00;;;;;;7378460;19;20007;-68
2023/12/10 03:15:14;;;;;;;19.05;3.78;;;7.60;1.00;;;;;;7379147;19;20019;-68
2023/12/10 03:17:44;;;;;;;12.55;3.30;;;7.60;1.00;;;;;;7377300;19;20010;-68
2023/12/10 03:20:15;;;;;;;18.70;4.32;;;7.50;1.00;;;;;;7375444;19;20041;-68
2023/12/10 03:22:45;;;;;;;14.13;3.63;;;7.50;1.00;;;;;;7372352;19;20014;-68
2023/12/10 03:25:15;;;;;;;16.02;3.33;;;7.40;1.00;;;;;;7375650;19;20022;-68
2023/12/10 03:27:48;;;;;;;14.25;3.92;;;7.80;1.00;;;;;;7377548;19;20475;-68
2023/12/10 03:30:18;;;;;;;17.55;4.03;;;7.70;1.00;;;;;;7371541;19;20027;-68
2023/12/10 03:32:49;;;;;;;21.70;3.83;;;7.60;1.00;;;;;;7375247;19;20491;-68
2023/12/10 03:35:19;;;;;;;17.77;3.88;;;7.60;1.00;;;;;;7375185;19;20608;-68
2023/12/10 03:37:49;;;;;;;20.90;4.20;;;7.60;1.00;;;;;;7375108;19;20017;-68
2023/12/10 03:40:19;;;;;;;10.73;3.60;;;7.70;1.00;;;;;;7374446;19;20014;-68
2023/12/10 03:42:52;;;;;;;13.57;3.47;;;7.70;1.00;;;;;;7376821;19;20013;-68
2023/12/10 03:45:22;;;;;;;14.85;3.70;;;7.80;1.00;;;;;;7375518;19;20041;-68
2023/12/10 03:47:53;;;;;;;15.85;3.45;;;7.80;1.00;;;;;;7375182;19;20022;-68
2023/12/10 03:50:23;;;;;;;19.17;4.22;;;7.90;1.00;;;;;;7374641;19;20014;-68
2023/12/10 03:52:53;;;;;;;23.00;3.85;;;7.90;1.00;;;;;;7375157;19;20503;-68
2023/12/10 03:55:23;;;;;;;17.00;4.13;;;7.90;1.00;;;;;;7375282;19;20482;-68
2023/12/10 03:57:56;;;;;;;17.20;3.47;;;8.10;1.00;;;;;;7374270;19;20028;-68
2023/12/10 04:00:26;;;;;;;14.18;3.53;;;8.10;1.00;;;;;;7374957;19;20011;-68
2023/12/10 04:02:57;;;;;;;19.00;4.05;;;8.10;1.00;;;;;;7373928;19;20603;-68
2023/12/10 04:05:27;;;;;;;13.32;2.92;;;8.10;1.00;;;;;;7374734;19;20014;-68
2023/12/10 04:07:57;;;;;;;16.48;3.45;;;8.30;1.00;;;;;;7374616;19;20013;-68
2023/12/10 04:10:27;;;;;;;17.80;3.85;;;8.30;1.00;;;;;;7375428;19;20044;-69
2023/12/10 04:13:00;;;;;;;16.15;3.88;;;8.30;1.00;;;;;;7372936;19;20014;-69
2023/12/10 04:15:30;;;;;;;17.52;3.83;;;8.40;1.00;;;;;;7375868;19;20047;-68
2023/12/10 04:18:02;;;;;;;11.68;3.80;;;8.30;1.00;;;;;;7374057;19;20035;-68
2023/12/10 04:20:32;;;;;;;19.63;3.90;;;8.30;1.00;;;;;;7375464;19;20081;-68
2023/12/10 04:23:02;;;;;;;16.23;3.33;;;8.30;1.00;;;;;;7374607;19;20003;-68
2023/12/10 04:25:32;;;;;;;13.70;3.50;;;8.30;1.00;;;;;;7375078;19;20467;-68
2023/12/10 04:28:06;;;;;;;16.63;4.03;;;8.30;1.00;;;;;;7373324;19;20040;-68
2023/12/10 04:30:37;;;;;;;20.92;3.67;;;8.30;1.00;;;;;;7374882;19;20018;-68
2023/12/10 04:33:07;;;;;;;15.65;4.07;;;8.30;1.00;;;;;;7378772;19;20467;-69
2023/12/10 04:35:37;;;;;;;18.55;4.47;;;8.30;1.00;;;;;;7381479;19;20010;-68
2023/12/10 04:38:07;;;;;;;15.85;3.28;;;8.30;1.00;;;;;;7380545;19;20010;-69
2023/12/10 04:40:38;;;;;;;15.68;3.90;;;8.30;1.00;;;;;;7380797;19;20018;-69
2023/12/10 04:43:10;;;;;;;17.70;3.83;;;8.30;1.00;;;;;;7381679;19;20042;-69
2023/12/10 04:45:41;;;;;;;14.25;4.10;;;8.30;1.00;;;;;;7381124;19;20486;-68
2023/12/10 04:48:11;;;;;;;17.20;3.38;;;8.30;1.00;;;;;;7379933;19;20017;-69
2023/12/10 04:50:42;;;;;;;13.05;3.25;;;8.30;1.00;;;;;;7381036;19;20014;-68
2023/12/10 04:53:12;;;;;;;16.67;3.58;;;8.30;1.00;;;;;;7380604;19;20010;-69
2023/12/10 04:55:42;;;;;;;22.00;3.83;;;8.30;1.00;;;;;;7379747;19;20053;-69
2023/12/10 04:58:15;;;;;;;17.70;3.75;;;8.30;1.00;;;;;;7379975;19;20073;-68
2023/12/10 05:00:46;;;;;;;16.42;3.42;;;8.40;1.00;;;;;;7381638;19;20015;-68
2023/12/10 05:03:16;;;;;;;17.17;3.90;;;8.40;1.00;;;;;;7380546;19;20337;-69
2023/12/10 05:05:46;;;;;;;18.30;3.83;;;8.40;1.00;;;;;;7380839;19;20035;-68
2023/12/10 05:08:17;;;;;;;21.85;3.90;;;8.50;1.00;;;;;;7379583;19;20114;-69
2023/12/10 05:10:47;;;;;;;17.75;4.00;;;8.40;1.00;;;;;;7380977;19;20011;-69
2023/12/10 05:13:20;;;;;;;14.95;3.33;;;8.50;1.00;;;;;;7380515;19;20014;-69
2023/12/10 05:15:50;;;;;;;21.27;4.10;;;8.50;1.00;;;;;;7379947;19;20007;-68
2023/12/10 05:18:20;;;;;;;15.50;3.58;;;8.50;1.00;;;;;;7380857;19;20014;-68
2023/12/10 05:20:52;;;;;;;16.70;3.88;;;8.50;1.00;;;;;;7383057;19;20052;-68
2023/12/10 05:23:22;;;;;;;11.35;3.10;;;8.60;1.00;;;;;;7379802;19;20717;-68
2023/12/10 05:25:52;;;;;;;13.35;3.47;;;8.50;1.00;;;;;;7379431;19;20013;-68
2023/12/10 05:28:25;;;;;;;11.02;2.70;;;8.60;1.00;;;;;;7379668;19;20006;-68
2023/12/10 05:30:55;;;;;;;14.43;3.70;;;8.60;1.00;;;;;;7379440;19;20035;-68
2023/12/10 05:33:25;;;;;;;18.33;3.72;;;8.60;1.00;;;;;;7379713;19;20010;-68
2023/12/10 05:35:55;;;;;;;10.38;3.60;;;8.60;1.00;;;;;;7379363;19;20463;-68
2023/12/10 05:38:26;;;;;;;16.23;3.10;;;8.60;1.00;;;;;;7379967;19;20021;-68
2023/12/10 05:40:56;;;;;;;15.20;3.85;;;8.60;1.00;;;;;;7378062;19;20030;-69
2023/12/10 05:43:28;;;;;;;17.25;3.28;;;8.70;1.00;;;;;;7378834;19;20390;-68
2023/12/10 05:45:59;;;;;;;15.90;3.35;;;8.50;1.00;;;;;;7379950;19;20066;-68
2023/12/10 05:48:30;;;;;;;11.52;2.92;;;8.50;1.00;;;;;;7380776;19;20094;-69
2023/12/10 05:51:02;;;;;;;12.63;3.25;;;8.50;1.00;;;;;;7380941;19;20003;-68
2023/12/10 05:53:32;;;;;;;14.23;3.05;;;8.40;1.00;;;;;;7377429;19;20018;-68
2023/12/10 05:56:02;;;;;;;18.48;4.00;;;8.40;1.00;;;;;;7377851;19;20031;-68
2023/12/10 05:58:35;;;;;;;15.68;3.05;;;8.40;1.00;;;;;;7378536;19;20369;-67
2023/12/10 06:01:06;;;;;;;14.73;3.13;;;8.30;1.00;;;;;;7378393;19;20010;-68
2023/12/10 06:03:36;;;;;;;11.55;3.38;;;8.40;1.00;;;;;;7378357;19;20486;-67
2023/12/10 06:06:07;;;;;;;13.90;2.85;;;8.40;1.00;;;;;;7377949;19;20011;-67
2023/12/10 06:08:37;;;;;;;11.00;2.78;;;8.30;1.00;;;;;;7379222;19;20026;-67
2023/12/10 06:11:08;;;;;;;11.68;2.88;;;8.40;1.00;;;;;;7379244;19;20010;-68
2023/12/10 06:13:41;;;;;;;12.80;2.92;;;8.20;1.00;;;;;;7379350;19;20097;-67
2023/12/10 06:16:14;;;;;;;15.82;4.30;;;8.30;1.00;;;;;;7377207;19;20010;-67
2023/12/10 06:18:44;;;;;;;12.65;3.50;;;8.30;1.00;;;;;;7378758;19;20017;-67
2023/12/10 06:21:15;;;;;;;16.50;3.22;;;8.30;1.00;;;;;;7378088;19;20010;-67
2023/12/10 06:23:45;;;;;;;12.13;2.63;;;8.20;1.00;;;;;;7378375;19;20021;-68
2023/12/10 06:26:16;;;;;;;17.70;3.17;;;8.40;1.00;;;;;;7378195;19;20007;-68
2023/12/10 06:28:49;;;;;;;10.93;2.78;;;8.30;1.00;;;;;;7378175;19;20652;-69
2023/12/10 06:31:19;;;;;;;13.55;3.25;;;8.30;1.00;;;;;;7378457;19;20018;-69
2023/12/10 06:33:49;;;;;;;11.82;3.10;;;8.30;1.00;;;;;;7378128;19;20499;-68
2023/12/10 06:36:19;;;;;;;11.18;3.08;;;8.40;1.00;;;;;;7376993;19;20047;-69
2023/12/10 06:38:50;;;;;;;9.95;2.33;;;8.40;1.00;;;;;;7377617;19;20010;-69
2023/12/10 06:41:20;;;;;;;15.73;3.60;;;8.40;1.00;;;;;;7377769;19;20002;-68
2023/12/10 06:43:52;;;;;;;14.75;3.15;;;8.40;1.00;;;;;;7377237;19;20455;-68
2023/12/10 06:46:23;;;;;;;12.20;3.65;;;8.40;1.00;;;;;;7377082;19;20031;-68
2023/12/10 06:48:53;;;;;;;12.60;2.53;;;8.40;1.00;;;;;;7378789;19;20051;-68
2023/12/10 06:51:24;;;;;;;17.10;3.95;;;8.40;1.00;;;;;;7377715;19;20167;-69
2023/12/10 06:53:54;;;;;;;15.40;3.80;;;8.40;1.00;;;;;;7376069;19;20047;-68
2023/12/10 06:56:24;;;;;;;13.82;2.78;;;8.50;1.00;;;;;;7376643;19;20053;-68
2023/12/10 06:58:57;;;;;;;11.52;2.90;;;8.60;1.00;;;;;;7377512;19;20010;-68
2023/12/10 07:01:27;;;;;;;8.40;2.80;;;8.60;1.00;;;;;;7378402;19;20006;-68
2023/12/10 07:04:01;;;;;;;12.02;3.10;;;8.50;1.00;;;;;;7377051;19;20010;-68
2023/12/10 07:06:31;;;;;;;11.10;2.65;;;8.40;1.00;;;;;;7375414;19;20573;-68
2023/12/10 07:09:01;;;;;;;11.30;2.90;;;8.50;1.00;;;;;;7376861;19;20384;-68
2023/12/10 07:11:31;;;;;;;11.68;3.03;;;8.50;1.00;;;;;;7377291;19;20002;-68
2023/12/10 07:14:04;;;;;;;11.82;3.10;;;8.50;1.00;;;;;;7376068;19;20348;-68
2023/12/10 07:16:34;;;;;;;10.68;2.70;;;8.40;1.00;;;;;;7377724;19;20017;-68
2023/12/10 07:19:05;;;;;;;8.68;2.63;;;8.40;1.00;;;;;;7377977;19;20054;-68
2023/12/10 07:21:35;;;;;;;14.38;3.45;;;8.50;1.00;;;;;;7378930;19;20010;-68
2023/12/10 07:24:06;;;;;;;11.45;2.70;;;8.50;1.00;;;;;;7378314;19;20032;-68
2023/12/10 07:26:36;;;;;;;13.90;3.30;;;8.50;1.00;;;;;;7376669;19;20082;-68
2023/12/10 07:29:09;;;;;;;11.90;2.78;;;8.40;1.00;;;;;;7377539;19;20029;-68
2023/12/10 07:31:39;;;;;;;13.13;3.65;;;8.40;1.00;;;;;;7378802;19;20392;-69
2023/12/10 07:34:09;;;;;;;13.38;3.70;;;8.30;1.00;;;;;;7378112;19;20010;-69
2023/12/10 07:36:40;;;;;;;12.07;3.58;;;8.30;1.00;;;;;;7377360;19;20021;-68
2023/12/10 07:39:10;;;;;;;13.77;3.50;;;8.40;1.00;;;;;;7374623;19;20010;-68
2023/12/10 07:41:40;;;;;;;11.02;3.85;;;8.40;1.00;;;;;;7375853;19;20466;-68
2023/12/10 07:44:13;;;;;;;13.00;3.15;;;8.40;1.00;;;;;;7375754;19;20010;-68
2023/12/10 07:46:43;;;;;;;13.10;3.20;;;8.40;1.00;;;;;;7375588;19;20815;-68
2023/12/10 07:49:14;;;;;;;11.35;2.72;;;8.50;1.00;;;;;;7376439;19;20010;-68
2023/12/10 07:51:44;;;;;;;8.35;2.33;;;8.50;1.00;;;;;;7376993;19;20020;-68
2023/12/10 07:54:14;;;;;;;16.63;3.65;;;8.40;1.00;;;;;;7378078;19;20010;-68
2023/12/10 07:56:45;;;;;;;15.68;3.22;;;8.40;1.00;;;;;;7375396;19;20092;-67
2023/12/10 07:59:19;;;;;;;12.60;2.83;;;8.50;1.00;;;;;;7374459;19;20006;-68
2023/12/10 08:01:51;;;;;;;13.88;2.95;;;8.60;1.00;;;;;;7375771;19;20011;-68
2023/12/10 08:04:22;;;;;;;11.07;2.72;;;8.60;1.00;;;;;;7375492;19;20018;-68
2023/12/10 08:06:53;;;;;;;13.35;2.85;;;8.60;1.00;;;;;;7378668;19;20015;-68
2023/12/10 08:09:23;;;;;;;13.20;3.20;;;8.60;1.00;;;;;;7389660;19;20014;-68
2023/12/10 08:11:54;;;;;;;13.35;2.90;;;8.60;1.00;;;;;;7389702;19;20014;-69
2023/12/10 08:14:28;;;;;;;14.10;3.70;;;8.60;1.00;;;;;;7386706;19;20013;-69
2023/12/10 08:16:59;;;;;;;10.30;2.75;;;8.60;1.00;;;;;;7389367;19;20230;-68
2023/12/10 08:19:30;;;;;;;15.82;2.78;;;8.60;1.00;;;;;;7388842;19;20053;-68
2023/12/10 08:22:01;;;;;;;12.52;2.97;;;8.60;1.00;;;;;;7389429;19;20006;-68
2023/12/10 08:24:32;;;;;;;13.00;3.13;;;8.60;1.00;;;;;;7388021;19;20018;-68
2023/12/10 08:27:02;;;;;;;8.30;2.70;;;8.60;1.00;;;;;;7385946;19;20032;-68
2023/12/10 08:29:35;;;;;;;14.20;2.88;;;8.70;1.00;;;;;;7387666;19;20011;-68
2023/12/10 08:32:06;;;;;;;13.50;3.45;;;8.70;1.00;;;;;;7389969;19;20050;-69
2023/12/10 08:34:37;;;;;;;13.05;2.40;;;8.60;1.00;;;;;;7387924;19;20013;-68
2023/12/10 08:37:09;;;;;;;9.38;2.60;;;8.70;1.00;;;;;;7388893;19;20028;-69
2023/12/10 08:39:40;;;;;;;13.52;3.65;;;8.80;1.00;;;;;;7388497;19;20463;-67
2023/12/10 08:42:10;;;;;;;16.23;2.70;;;8.80;1.00;;;;;;7388234;19;20015;-69
2023/12/10 08:44:43;;;;;;;14.63;2.70;;;8.80;1.00;;;;;;7389370;19;20046;-68
2023/12/10 08:47:13;;;;;;;10.50;2.75;;;8.80;1.00;;;;;;7389930;19;20014;-68
2023/12/10 08:49:44;;;;;;;15.13;2.75;;;8.80;1.00;;;;;;7389565;19;20006;-68
2023/12/10 08:52:14;;;;;;;14.65;3.28;;;8.80;1.00;;;;;;7389630;19;20778;-69
2023/12/10 08:54:44;;;;;;;10.13;2.67;;;8.90;1.00;;;;;;7387559;19;20013;-69
2023/12/10 08:57:16;;;;;;;11.05;2.92;;;8.90;1.00;;;;;;7389781;19;20105;-69
2023/12/10 08:59:49;;;;;;;13.00;3.15;;;9.00;1.00;;;;;;7388738;19;20561;-68
2023/12/10 09:02:21;;;;;;;9.32;2.17;;;9.10;1.00;;;;;;7388682;19;20015;-68
2023/12/10 09:04:51;;;;;;;11.77;2.78;;;9.00;1.00;;;;;;7389834;19;20010;-69
2023/12/10 09:07:21;;;;;;;10.68;2.47;;;9.00;1.00;;;;;;7389132;19;20369;-69
2023/12/10 09:09:52;;;;;;;16.25;3.40;;;9.10;1.00;;;;;;7388363;19;20017;-69
2023/12/10 09:12:34;;;;;;;11.20;2.80;;;9.10;1.00;;;;;;7388315;19;20015;-68
2023/12/10 09:15:09;;;;;;;14.52;3.80;;;9.10;1.00;;;;;;7387237;19;20002;-68
2023/12/10 09:17:40;;;;;;;10.93;3.53;;;9.00;1.00;;;;;;7386622;19;20018;-68
2023/12/10 09:20:10;;;;;;;11.40;3.05;;;9.00;1.00;;;;;;7378534;19;20014;-70
2023/12/10 09:22:41;;;;;;;11.05;2.75;;;9.00;1.00;;;;;;7379694;19;20073;-68
2023/12/10 09:25:11;;;;;;;12.07;2.90;;;9.00;1.00;;;;;;7380408;19;20010;-68
2023/12/10 09:27:41;;;;;;;9.13;3.22;;;8.90;1.00;;;;;;7379329;19;20361;-67
2023/12/10 09:30:15;;;;;;;11.73;2.80;;;9.00;1.00;;;;;;7377227;19;20011;-68
2023/12/10 09:32:45;;;;;;;11.10;2.22;;;9.10;1.00;;;;;;7375856;19;20018;-68
2023/12/10 09:35:15;;;;;;;10.45;2.92;;;9.10;1.00;;;;;;7380375;19;20010;-67
2023/12/10 09:37:46;;;;;;;12.68;2.83;;;9.20;1.00;;;;;;7381611;19;20011;-67
2023/12/10 09:40:16;;;;;;;9.35;2.20;;;9.30;1.00;;;;;;7380676;19;20015;-67
2023/12/10 09:42:50;;;;;;;15.03;3.57;;;9.20;1.00;;;;;;7379157;19;20014;-68
2023/12/10 09:45:23;;;;;;;9.98;2.35;;;9.20;1.00;;;;;;7380014;19;20078;-68
2023/12/10 09:47:53;;;;;;;11.15;2.65;;;9.20;1.00;;;;;;7378579;19;20017;-68
2023/12/10 09:50:25;;;;;;;10.32;2.85;;;9.20;1.00;;;;;;7380264;19;20010;-68
2023/12/10 09:52:55;;;;;;;8.00;2.58;;;9.20;1.00;;;;;;7381004;19;20037;-68
2023/12/10 09:55:26;;;;;;;12.13;3.28;;;9.10;1.00;;;;;;7380239;19;20011;-68
2023/12/10 09:57:56;;;;;;;13.38;2.70;;;9.10;1.00;;;;;;7378453;19;20034;-67
2023/12/10 10:00:29;;;;;;;14.40;2.95;;;9.10;1.00;;;;;;7379797;19;20006;-68
2023/12/10 10:03:03;;;;;;;13.10;2.88;;;9.10;1.00;;;;;;7377955;19;20409;-69
2023/12/10 10:05:35;;;;;;;12.68;2.65;;;9.10;1.00;;;;;;7379283;19;20071;-68
2023/12/10 10:08:06;;;;;;;14.35;2.95;;;9.00;1.00;;;;;;7373938;19;20017;-70
2023/12/10 10:10:36;;;;;;;13.43;3.00;;;9.00;1.00;;;;;;7374292;19;20018;-70
2023/12/10 10:13:08;;;;;;;10.43;2.70;;;9.00;1.00;;;;;;7375000;19;20086;-70
2023/12/10 10:15:42;;;;;;;12.63;2.58;;;9.00;1.00;;;;;;7375514;19;20016;-69
2023/12/10 10:18:14;;;;;;;13.00;3.22;;;9.00;1.00;;;;;;7375938;19;20025;-70
2023/12/10 10:20:46;;;;;;;11.55;2.33;;;9.10;1.00;;;;;;7373383;19;20463;-70
2023/12/10 10:23:17;;;;;;;9.38;2.55;;;9.20;1.00;;;;;;7376091;19;20030;-71
2023/12/10 10:25:47;;;;;;;12.88;2.85;;;9.20;1.00;;;;;;7373414;19;20040;-69
2023/12/10 10:28:19;;;;;;;11.63;2.42;;;9.20;1.00;;;;;;7372464;19;20010;-69
2023/12/10 10:30:54;;;;;;;13.23;3.20;;;9.30;1.00;;;;;;7368634;19;20002;-70
2023/12/10 10:33:26;;;;;;;;;;;9.30;1.00;;;;;;7373115;19;20037;-70
2023/12/10 10:35:59;;;;;;;7.25;1.90;;;9.30;1.00;;;;;;7373260;19;19974;-70
2023/12/10 10:38:32;;;;;;;6.47;2.00;;;9.30;1.00;;;;;;7374270;19;20006;-69
2023/12/10 10:41:03;;;;;;;9.07;2.40;;;9.30;1.00;;;;;;7373173;19;20010;-70
2023/12/10 10:43:34;;;;;;;8.30;2.45;;;9.20;1.00;;;;;;7368918;19;20029;-69
2023/12/10 10:46:09;;;;;;;8.88;2.25;;;9.20;1.00;;;;;;7369198;19;20522;-70
2023/12/10 10:48:42;;;;;;;13.32;2.58;;;9.20;1.00;;;;;;7369777;19;20010;-70
2023/12/10 10:51:14;;;;;;;4.80;1.70;;;9.20;1.00;;;;;;7371010;19;20003;-71
2023/12/10 10:53:46;;;;;;;10.02;2.50;;;9.40;1.00;;;;;;7370078;19;20015;-70
2023/12/10 10:56:19;;;;;;;13.07;2.72;;;9.40;1.00;;;;;;7364068;19;20013;-70
2023/12/10 10:58:50;;;;;;;11.75;4.38;;;9.50;1.00;;;;;;7370343;19;20006;-70
2023/12/10 11:01:44;;;;;;;10.02;2.45;;;9.40;1.00;;;;;;7373106;19;20010;-69
2023/12/10 11:04:18;;;;;;;11.45;3.45;;;9.60;1.00;;;;;;6861272;19;2003883;-69
2023/12/10 11:06:50;;;;;;;9.52;2.33;;;9.60;1.00;;;;;;7371273;19;20025;-69
2023/12/10 11:09:22;;;;;;;11.52;2.83;;;9.60;1.00;;;;;;7370599;19;20006;-69
2023/12/10 11:11:53;;;;;;;11.35;2.50;;;9.60;1.00;;;;;;7374476;19;20084;-70
2023/12/10 11:14:25;;;;;;;6.00;2.00;;;9.60;1.00;;;;;;7372733;19;20021;-70
2023/12/10 11:17:07;;;;;;;8.95;2.75;;;9.60;1.00;;;;;;7374264;19;20086;-69
2023/12/10 11:19:40;;;;;;;10.38;3.00;;;9.50;1.00;;;;;;7368527;19;20605;-70
2023/12/10 11:22:14;;;;;;;9.43;2.35;;;9.60;1.00;;;;;;7369134;19;20010;-71
2023/12/10 11:24:45;;;;;;;7.90;2.20;;;9.60;1.00;;;;;;7372096;19;20014;-69
2023/12/10 11:27:17;;;;;;;11.90;2.75;;;9.60;1.00;;;;;;7370010;19;20030;-69
2023/12/10 11:29:48;;;;;;;9.88;2.78;;;9.70;1.00;;;;;;7370510;19;20010;-70
2023/12/10 11:32:22;;;;;;;9.25;2.20;;;9.60;1.00;;;;;;7367815;19;20018;-70
2023/12/10 11:34:53;;;;;;;11.98;2.92;;;9.60;1.00;;;;;;7370846;19;20660;-69
2023/12/10 11:37:25;;;;;;;7.72;2.20;;;9.50;1.00;;;;;;7372204;19;20010;-69
2023/12/10 11:39:56;;;;;;;9.60;2.53;;;9.50;1.00;;;;;;7365553;19;20482;-70
2023/12/10 11:42:27;;;;;;;9.25;2.55;;;9.40;1.00;;;;;;7367808;19;20007;-70
2023/12/10 11:44:58;;;;;;;8.88;2.45;;;9.50;1.00;;;;;;7370754;19;20019;-69
2023/12/10 11:47:32;;;;;;;8.38;2.03;;;9.50;1.00;;;;;;7366011;19;20006;-69
2023/12/10 11:50:07;;;;;;;10.68;2.60;;;9.40;1.00;;;;;;7371236;19;20487;-70
2023/12/10 11:52:38;;;;;;;9.38;2.53;;;9.40;1.00;;;;;;7365984;19;20043;-69
2023/12/10 11:55:10;;;;;;;7.85;2.42;;;9.30;1.00;;;;;;7366508;19;20053;-70
2023/12/10 11:57:46;;;;;;;7.53;2.25;;;9.40;1.00;;;;;;7367769;19;20018;-70
2023/12/10 12:00:18;;;;;;;7.97;2.20;;;9.40;1.00;;;;;;7369681;19;20029;-70
2023/12/10 12:02:51;;;;;;;8.65;2.10;;;9.40;1.00;;;;;;7365207;19;20429;-69
2023/12/10 12:05:23;;;;;;;12.52;2.80;;;9.50;1.00;;;;;;7369398;19;20014;-70
2023/12/10 12:07:54;;;;;;;9.30;2.50;;;9.60;1.00;;;;;;7368475;19;20007;-70
2023/12/10 12:10:25;;;;;;;12.68;2.88;;;9.60;1.00;;;;;;7366542;19;20010;-70
2023/12/10 12:12:57;;;;;;;11.02;2.53;;;9.60;1.00;;;;;;7367658;19;20033;-70
2023/12/10 12:15:29;;;;;;;10.70;2.95;;;9.70;1.00;;;;;;7365208;19;20559;-70
2023/12/10 12:18:02;;;;;;;15.00;2.95;;;9.60;1.00;;;;;;7364713;19;20043;-70
2023/12/10 12:20:33;;;;;;;14.20;4.13;;;9.60;1.00;;;;;;7370672;19;20021;-69
2023/12/10 12:23:05;;;;;;;14.50;3.55;;;9.60;1.00;;;;;;7369508;19;20021;-70
2023/12/10 12:25:38;;;;;;;9.77;3.15;;;9.60;1.00;;;;;;7364007;19;20697;-70
2023/12/10 12:28:09;;;;;;;10.20;2.42;;;9.60;1.00;;;;;;7367775;19;20144;-71
2023/12/10 12:30:41;;;;;;;9.73;2.55;;;9.50;1.00;;;;;;7370747;19;20018;-69
2023/12/10 12:33:16;;;;;;;8.77;2.20;;;9.60;1.00;;;;;;7371072;19;20513;-71
2023/12/10 12:35:47;;;;;;;10.20;2.58;;;9.60;1.00;;;;;;7362963;19;20007;-70
2023/12/10 12:38:18;;;;;;;8.00;2.53;;;9.60;1.00;;;;;;7369574;19;20010;-71
2023/12/10 12:40:49;;;;;;;10.30;2.65;;;9.60;1.00;;;;;;7363920;19;20014;-70
2023/12/10 12:43:20;;;;;;;10.13;2.67;;;9.60;1.00;;;;;;7371801;19;20007;-71
2023/12/10 12:45:51;;;;;;;13.90;2.97;;;9.60;1.00;;;;;;7365705;19;20661;-71
2023/12/10 12:48:25;;;;;;;15.15;3.20;;;9.60;1.00;;;;;;7366653;19;20385;-71
2023/12/10 12:50:56;;;;;;;15.40;3.70;;;9.60;1.00;;;;;;7371364;19;20032;-69
2023/12/10 12:53:26;;;;;;;13.95;3.03;;;9.50;1.00;;;;;;7375557;19;20337;-69
2023/12/10 12:55:56;;;;;;;10.30;2.95;;;9.50;1.00;;;;;;7382148;19;20023;-70
2023/12/10 12:58:27;;;;;;;7.97;2.45;;;9.50;1.00;;;;;;7384005;19;20342;-68
2023/12/10 13:00:57;;;;;;;10.10;3.30;;;9.50;1.00;;;;;;7386578;19;20016;-68
2023/12/10 13:03:30;;;;;;;10.63;2.83;;;9.50;1.00;;;;;;7382291;19;20515;-69
2023/12/10 13:06:00;;;;;;;12.15;2.60;;;9.50;1.00;;;;;;7381447;19;20016;-69
2023/12/10 13:08:31;;;;;;;9.98;2.25;;;9.40;1.00;;;;;;7381451;19;20033;-69
2023/12/10 13:11:01;;;;;;;10.85;2.70;;;9.50;1.00;;;;;;7382529;19;20030;-70
2023/12/10 13:13:31;;;;;;;7.32;2.60;;;9.50;1.00;;;;;;7381280;19;20019;-68
2023/12/10 13:16:04;;;;;;;15.07;2.70;;;9.50;1.00;;;;;;7379782;19;20011;-69
2023/12/10 13:18:37;;;;;;;8.05;2.53;;;9.50;1.00;;;;;;7379729;19;20400;-69